sensor_id;sensor_type;location;lat;lon;timestamp;temperature;humidity
46416;DHT22;32620;51.704;7.822;2023-04-08T00:02:20;3.40;99.90
46416;DHT22;32620;51.704;7.822;2023-04-08T00:04:45;3.40;99.90
46416;DHT22;32620;51.704;7.822;2023-04-08T00:07:11;3.30;99.90
46416;DHT22;32620;51.704;7.822;2023-04-08T00:09:37;3.30;99.90
46416;DHT22;32620;51.704;7.822;2023-04-08T00:12:03;3.20;99.90
46416;DHT22;32620;51.704;7.822;2023-04-08T00:14:29;3.20;99.90
46416;DHT22;32620;51.704;7.822;2023-04-08T00:16:54;3.20;99.90
46416;DHT22;32620;51.704;7.822;2023-04-08T00:19:20;3.20;99.90
46416;DHT22;32620;51.704;7.822;2023-04-08T00:21:45;3.10;99.90
46416;DHT22;32620;51.704;7.822;2023-04-08T00:24:12;3.10;99.90
46416;DHT22;32620;51.704;7.822;2023-04-08T00:26:37;3.10;99.90
46416;DHT22;32620;51.704;7.822;2023-04-08T00:29:03;3.00;99.90
46416;DHT22;32620;51.704;7.822;2023-04-08T00:31:28;3.00;99.90
46416;DHT22;32620;51.704;7.822;2023-04-08T00:33:54;3.00;99.90
46416;DHT22;32620;51.704;7.822;2023-04-08T00:36:20;2.90;99.90
46416;DHT22;32620;51.704;7.822;2023-04-08T00:38:46;2.90;99.90
46416;DHT22;32620;51.704;7.822;2023-04-08T00:41:11;2.90;99.90
46416;DHT22;32620;51.704;7.822;2023-04-08T00:43:37;2.90;99.90
46416;DHT22;32620;51.704;7.822;2023-04-08T00:46:03;2.90;99.90
46416;DHT22;32620;51.704;7.822;2023-04-08T00:48:29;2.90;99.90
46416;DHT22;32620;51.704;7.822;2023-04-08T00:50:56;2.80;99.90
46416;DHT22;32620;51.704;7.822;2023-04-08T00:53:21;2.80;99.90
46416;DHT22;32620;51.704;7.822;2023-04-08T00:55:47;2.80;99.90
46416;DHT22;32620;51.704;7.822;2023-04-08T00:58:13;2.80;99.90
46416;DHT22;32620;51.704;7.822;2023-04-08T01:00:42;2.80;99.90
46416;DHT22;32620;51.704;7.822;2023-04-08T01:03:18;2.70;99.90
46416;DHT22;32620;51.704;7.822;2023-04-08T01:06:12;2.60;99.90
46416;DHT22;32620;51.704;7.822;2023-04-08T01:08:41;2.60;99.90
46416;DHT22;32620;51.704;7.822;2023-04-08T01:11:09;2.70;99.90
46416;DHT22;32620;51.704;7.822;2023-04-08T01:13:39;2.60;99.90
46416;DHT22;32620;51.704;7.822;2023-04-08T01:16:09;2.70;99.90
46416;DHT22;32620;51.704;7.822;2023-04-08T01:18:35;2.70;99.90
46416;DHT22;32620;51.704;7.822;2023-04-08T01:21:02;2.60;99.90
46416;DHT22;32620;51.704;7.822;2023-04-08T01:23:41;2.50;99.90
46416;DHT22;32620;51.704;7.822;2023-04-08T01:26:10;2.50;99.90
46416;DHT22;32620;51.704;7.822;2023-04-08T01:28:38;2.50;99.90
46416;DHT22;32620;51.704;7.822;2023-04-08T01:31:06;2.50;99.90
46416;DHT22;32620;51.704;7.822;2023-04-08T01:33:32;2.50;99.90
46416;DHT22;32620;51.704;7.822;2023-04-08T01:35:59;2.50;99.90
46416;DHT22;32620;51.704;7.822;2023-04-08T01:38:26;2.40;99.90
46416;DHT22;32620;51.704;7.822;2023-04-08T01:40:52;2.50;99.90
46416;DHT22;32620;51.704;7.822;2023-04-08T01:43:19;2.50;99.90
46416;DHT22;32620;51.704;7.822;2023-04-08T01:45:46;2.50;99.90
46416;DHT22;32620;51.704;7.822;2023-04-08T01:48:13;2.50;99.90
46416;DHT22;32620;51.704;7.822;2023-04-08T01:50:41;2.50;99.90
46416;DHT22;32620;51.704;7.822;2023-04-08T01:53:09;2.50;99.90
46416;DHT22;32620;51.704;7.822;2023-04-08T01:55:35;2.50;99.90
46416;DHT22;32620;51.704;7.822;2023-04-08T01:58:04;2.50;99.90
46416;DHT22;32620;51.704;7.822;2023-04-08T02:00:31;2.40;99.90
46416;DHT22;32620;51.704;7.822;2023-04-08T02:02:58;2.40;99.90
46416;DHT22;32620;51.704;7.822;2023-04-08T02:05:24;2.40;99.90
46416;DHT22;32620;51.704;7.822;2023-04-08T02:07:50;2.30;99.90
46416;DHT22;32620;51.704;7.822;2023-04-08T02:10:16;2.30;99.90
46416;DHT22;32620;51.704;7.822;2023-04-08T02:12:43;2.30;99.90
46416;DHT22;32620;51.704;7.822;2023-04-08T02:15:09;2.20;99.90
46416;DHT22;32620;51.704;7.822;2023-04-08T02:20:17;2.20;99.90
46416;DHT22;32620;51.704;7.822;2023-04-08T02:25:43;2.10;99.90
46416;DHT22;32620;51.704;7.822;2023-04-08T02:28:10;2.00;99.90
46416;DHT22;32620;51.704;7.822;2023-04-08T02:30:37;2.00;99.90
46416;DHT22;32620;51.704;7.822;2023-04-08T02:33:05;1.90;99.90
46416;DHT22;32620;51.704;7.822;2023-04-08T02:35:32;1.90;99.90
46416;DHT22;32620;51.704;7.822;2023-04-08T02:37:58;1.80;99.90
46416;DHT22;32620;51.704;7.822;2023-04-08T02:40:27;1.80;99.90
46416;DHT22;32620;51.704;7.822;2023-04-08T02:42:53;1.80;99.90
46416;DHT22;32620;51.704;7.822;2023-04-08T02:45:20;1.80;99.90
46416;DHT22;32620;51.704;7.822;2023-04-08T02:47:46;1.80;99.90
46416;DHT22;32620;51.704;7.822;2023-04-08T02:50:11;1.80;99.90
46416;DHT22;32620;51.704;7.822;2023-04-08T02:52:37;1.80;99.90
46416;DHT22;32620;51.704;7.822;2023-04-08T02:55:02;1.80;99.90
46416;DHT22;32620;51.704;7.822;2023-04-08T02:57:31;1.90;99.90
46416;DHT22;32620;51.704;7.822;2023-04-08T02:59:56;1.90;99.90
46416;DHT22;32620;51.704;7.822;2023-04-08T03:02:22;2.00;99.90
46416;DHT22;32620;51.704;7.822;2023-04-08T03:04:47;2.00;99.90
46416;DHT22;32620;51.704;7.822;2023-04-08T03:07:13;2.10;99.90
46416;DHT22;32620;51.704;7.822;2023-04-08T03:09:39;2.10;99.90
46416;DHT22;32620;51.704;7.822;2023-04-08T03:12:04;2.20;99.90
46416;DHT22;32620;51.704;7.822;2023-04-08T03:14:30;2.20;99.90
46416;DHT22;32620;51.704;7.822;2023-04-08T03:16:55;2.30;99.90
46416;DHT22;32620;51.704;7.822;2023-04-08T03:19:21;2.30;99.90
46416;DHT22;32620;51.704;7.822;2023-04-08T03:21:47;2.40;99.90
46416;DHT22;32620;51.704;7.822;2023-04-08T03:24:12;2.50;99.90
46416;DHT22;32620;51.704;7.822;2023-04-08T03:26:38;2.50;99.90
46416;DHT22;32620;51.704;7.822;2023-04-08T03:29:03;2.60;99.90
46416;DHT22;32620;51.704;7.822;2023-04-08T03:31:29;2.60;99.90
46416;DHT22;32620;51.704;7.822;2023-04-08T03:33:54;2.70;99.90
46416;DHT22;32620;51.704;7.822;2023-04-08T03:36:20;2.70;99.90
46416;DHT22;32620;51.704;7.822;2023-04-08T03:38:45;2.80;99.90
46416;DHT22;32620;51.704;7.822;2023-04-08T03:41:11;2.90;99.90
46416;DHT22;32620;51.704;7.822;2023-04-08T03:43:36;2.90;99.90
46416;DHT22;32620;51.704;7.822;2023-04-08T03:46:02;2.90;99.90
46416;DHT22;32620;51.704;7.822;2023-04-08T03:48:27;3.00;99.90
46416;DHT22;32620;51.704;7.822;2023-04-08T03:50:53;3.00;99.90
46416;DHT22;32620;51.704;7.822;2023-04-08T03:53:18;3.10;99.90
46416;DHT22;32620;51.704;7.822;2023-04-08T03:55:44;3.10;99.90
46416;DHT22;32620;51.704;7.822;2023-04-08T03:58:10;3.10;99.90
46416;DHT22;32620;51.704;7.822;2023-04-08T04:00:35;3.20;99.90
46416;DHT22;32620;51.704;7.822;2023-04-08T04:03:01;3.20;99.90
46416;DHT22;32620;51.704;7.822;2023-04-08T04:05:27;3.30;99.90
46416;DHT22;32620;51.704;7.822;2023-04-08T04:07:53;3.30;99.90
46416;DHT22;32620;51.704;7.822;2023-04-08T04:10:18;3.40;99.90
46416;DHT22;32620;51.704;7.822;2023-04-08T04:12:44;3.40;99.90
46416;DHT22;32620;51.704;7.822;2023-04-08T04:15:10;3.40;99.90
46416;DHT22;32620;51.704;7.822;2023-04-08T04:17:36;3.40;99.90
46416;DHT22;32620;51.704;7.822;2023-04-08T04:20:04;3.40;99.90
46416;DHT22;32620;51.704;7.822;2023-04-08T04:22:30;3.50;99.90
46416;DHT22;32620;51.704;7.822;2023-04-08T04:24:56;3.40;99.90
46416;DHT22;32620;51.704;7.822;2023-04-08T04:27:21;3.50;99.90
46416;DHT22;32620;51.704;7.822;2023-04-08T04:29:47;3.50;99.90
46416;DHT22;32620;51.704;7.822;2023-04-08T04:32:12;3.50;99.90
46416;DHT22;32620;51.704;7.822;2023-04-08T04:34:38;3.50;99.90
46416;DHT22;32620;51.704;7.822;2023-04-08T04:37:03;3.50;99.90
46416;DHT22;32620;51.704;7.822;2023-04-08T04:39:29;3.60;99.90
46416;DHT22;32620;51.704;7.822;2023-04-08T04:41:54;3.60;99.90
46416;DHT22;32620;51.704;7.822;2023-04-08T04:44:20;3.60;99.90
46416;DHT22;32620;51.704;7.822;2023-04-08T04:46:45;3.60;99.90
46416;DHT22;32620;51.704;7.822;2023-04-08T04:49:11;3.60;99.90
46416;DHT22;32620;51.704;7.822;2023-04-08T04:51:36;3.60;99.90
46416;DHT22;32620;51.704;7.822;2023-04-08T04:54:02;3.60;99.90
46416;DHT22;32620;51.704;7.822;2023-04-08T04:56:27;3.50;99.90
46416;DHT22;32620;51.704;7.822;2023-04-08T04:58:53;3.50;99.90
46416;DHT22;32620;51.704;7.822;2023-04-08T05:01:18;3.50;99.90
46416;DHT22;32620;51.704;7.822;2023-04-08T05:03:44;3.40;99.90
46416;DHT22;32620;51.704;7.822;2023-04-08T05:06:10;3.40;99.90
46416;DHT22;32620;51.704;7.822;2023-04-08T05:08:36;3.50;99.90
46416;DHT22;32620;51.704;7.822;2023-04-08T05:11:01;3.50;99.90
46416;DHT22;32620;51.704;7.822;2023-04-08T05:13:27;3.50;99.90
46416;DHT22;32620;51.704;7.822;2023-04-08T05:15:53;3.50;99.90
46416;DHT22;32620;51.704;7.822;2023-04-08T05:18:19;3.60;99.90
46416;DHT22;32620;51.704;7.822;2023-04-08T05:20:45;3.70;99.90
46416;DHT22;32620;51.704;7.822;2023-04-08T05:23:11;3.70;99.90
46416;DHT22;32620;51.704;7.822;2023-04-08T05:25:36;3.80;99.90
46416;DHT22;32620;51.704;7.822;2023-04-08T05:28:03;3.90;99.90
46416;DHT22;32620;51.704;7.822;2023-04-08T05:30:28;4.00;99.90
46416;DHT22;32620;51.704;7.822;2023-04-08T05:32:54;4.00;99.90
46416;DHT22;32620;51.704;7.822;2023-04-08T05:35:19;4.10;99.90
46416;DHT22;32620;51.704;7.822;2023-04-08T05:37:45;4.10;99.90
46416;DHT22;32620;51.704;7.822;2023-04-08T05:40:11;4.10;99.90
46416;DHT22;32620;51.704;7.822;2023-04-08T05:42:36;4.20;99.90
46416;DHT22;32620;51.704;7.822;2023-04-08T05:45:02;4.20;99.90
46416;DHT22;32620;51.704;7.822;2023-04-08T05:47:27;4.20;99.90
46416;DHT22;32620;51.704;7.822;2023-04-08T05:49:53;4.40;99.90
46416;DHT22;32620;51.704;7.822;2023-04-08T05:52:18;4.50;99.90
46416;DHT22;32620;51.704;7.822;2023-04-08T05:54:44;4.60;99.90
46416;DHT22;32620;51.704;7.822;2023-04-08T05:57:10;4.60;99.90
46416;DHT22;32620;51.704;7.822;2023-04-08T05:59:36;4.70;99.90
46416;DHT22;32620;51.704;7.822;2023-04-08T06:02:01;4.90;99.90
46416;DHT22;32620;51.704;7.822;2023-04-08T06:04:27;5.00;99.90
46416;DHT22;32620;51.704;7.822;2023-04-08T06:06:53;5.10;99.90
46416;DHT22;32620;51.704;7.822;2023-04-08T06:09:18;5.10;99.90
46416;DHT22;32620;51.704;7.822;2023-04-08T06:11:44;5.10;99.90
46416;DHT22;32620;51.704;7.822;2023-04-08T06:14:11;5.10;99.90
46416;DHT22;32620;51.704;7.822;2023-04-08T06:16:37;5.10;99.90
46416;DHT22;32620;51.704;7.822;2023-04-08T06:19:02;5.10;99.90
46416;DHT22;32620;51.704;7.822;2023-04-08T06:21:28;5.10;99.90
46416;DHT22;32620;51.704;7.822;2023-04-08T06:23:53;5.20;99.90
46416;DHT22;32620;51.704;7.822;2023-04-08T06:26:19;5.30;99.90
46416;DHT22;32620;51.704;7.822;2023-04-08T06:28:44;5.10;99.90
46416;DHT22;32620;51.704;7.822;2023-04-08T06:31:10;5.00;99.90
46416;DHT22;32620;51.704;7.822;2023-04-08T06:33:36;5.00;99.90
46416;DHT22;32620;51.704;7.822;2023-04-08T06:36:04;5.20;99.90
46416;DHT22;32620;51.704;7.822;2023-04-08T06:38:29;5.30;99.90
46416;DHT22;32620;51.704;7.822;2023-04-08T06:41:00;5.30;99.90
46416;DHT22;32620;51.704;7.822;2023-04-08T06:43:26;5.40;99.90
46416;DHT22;32620;51.704;7.822;2023-04-08T06:45:54;5.50;99.90
46416;DHT22;32620;51.704;7.822;2023-04-08T06:48:20;5.70;99.90
46416;DHT22;32620;51.704;7.822;2023-04-08T06:50:48;5.80;99.90
46416;DHT22;32620;51.704;7.822;2023-04-08T06:53:13;6.00;99.90
46416;DHT22;32620;51.704;7.822;2023-04-08T06:55:39;6.20;99.90
46416;DHT22;32620;51.704;7.822;2023-04-08T06:58:04;6.20;99.90
46416;DHT22;32620;51.704;7.822;2023-04-08T07:00:30;6.20;99.90
46416;DHT22;32620;51.704;7.822;2023-04-08T07:02:55;6.10;99.90
46416;DHT22;32620;51.704;7.822;2023-04-08T07:05:21;6.20;99.90
46416;DHT22;32620;51.704;7.822;2023-04-08T07:07:46;6.30;99.90
46416;DHT22;32620;51.704;7.822;2023-04-08T07:10:12;6.30;99.90
46416;DHT22;32620;51.704;7.822;2023-04-08T07:12:38;6.30;99.90
46416;DHT22;32620;51.704;7.822;2023-04-08T07:15:03;6.20;99.90
46416;DHT22;32620;51.704;7.822;2023-04-08T07:17:29;6.20;99.90
46416;DHT22;32620;51.704;7.822;2023-04-08T07:19:54;6.10;99.90
46416;DHT22;32620;51.704;7.822;2023-04-08T07:22:21;6.10;99.90
46416;DHT22;32620;51.704;7.822;2023-04-08T07:24:46;6.20;99.90
46416;DHT22;32620;51.704;7.822;2023-04-08T07:27:14;6.30;99.90
46416;DHT22;32620;51.704;7.822;2023-04-08T07:29:41;6.30;99.90
46416;DHT22;32620;51.704;7.822;2023-04-08T07:32:06;6.30;99.90
46416;DHT22;32620;51.704;7.822;2023-04-08T07:34:34;6.40;99.90
46416;DHT22;32620;51.704;7.822;2023-04-08T07:37:01;6.50;99.90
46416;DHT22;32620;51.704;7.822;2023-04-08T07:39:26;6.60;99.90
46416;DHT22;32620;51.704;7.822;2023-04-08T07:41:52;6.60;99.90
46416;DHT22;32620;51.704;7.822;2023-04-08T07:44:18;6.90;99.90
46416;DHT22;32620;51.704;7.822;2023-04-08T07:46:44;7.10;99.90
46416;DHT22;32620;51.704;7.822;2023-04-08T07:49:10;7.20;83.10
46416;DHT22;32620;51.704;7.822;2023-04-08T07:51:36;7.60;90.00
46416;DHT22;32620;51.704;7.822;2023-04-08T07:54:02;7.70;65.90
46416;DHT22;32620;51.704;7.822;2023-04-08T07:56:28;7.80;58.30
46416;DHT22;32620;51.704;7.822;2023-04-08T07:58:53;7.70;45.50
46416;DHT22;32620;51.704;7.822;2023-04-08T08:01:20;7.60;59.80
46416;DHT22;32620;51.704;7.822;2023-04-08T08:03:47;7.60;76.60
46416;DHT22;32620;51.704;7.822;2023-04-08T08:06:13;7.70;69.90
46416;DHT22;32620;51.704;7.822;2023-04-08T08:08:38;7.50;41.50
46416;DHT22;32620;51.704;7.822;2023-04-08T08:11:04;7.50;48.80
46416;DHT22;32620;51.704;7.822;2023-04-08T08:13:30;7.50;58.60
46416;DHT22;32620;51.704;7.822;2023-04-08T08:15:55;7.50;73.40
46416;DHT22;32620;51.704;7.822;2023-04-08T08:18:21;7.30;91.50
46416;DHT22;32620;51.704;7.822;2023-04-08T08:20:47;7.20;88.00
46416;DHT22;32620;51.704;7.822;2023-04-08T08:23:12;7.30;96.00
46416;DHT22;32620;51.704;7.822;2023-04-08T08:25:38;7.40;92.00
46416;DHT22;32620;51.704;7.822;2023-04-08T08:28:03;7.40;90.70
46416;DHT22;32620;51.704;7.822;2023-04-08T08:30:29;7.50;82.80
46416;DHT22;32620;51.704;7.822;2023-04-08T08:32:54;7.60;80.30
46416;DHT22;32620;51.704;7.822;2023-04-08T08:35:23;7.60;63.80
46416;DHT22;32620;51.704;7.822;2023-04-08T08:37:49;7.70;59.70
46416;DHT22;32620;51.704;7.822;2023-04-08T08:40:14;7.70;51.90
46416;DHT22;32620;51.704;7.822;2023-04-08T08:42:41;7.70;52.80
46416;DHT22;32620;51.704;7.822;2023-04-08T08:45:07;7.80;58.90
46416;DHT22;32620;51.704;7.822;2023-04-08T08:47:33;7.90;58.90
46416;DHT22;32620;51.704;7.822;2023-04-08T08:49:58;7.90;65.20
46416;DHT22;32620;51.704;7.822;2023-04-08T08:52:24;7.80;58.30
46416;DHT22;32620;51.704;7.822;2023-04-08T08:54:58;7.90;59.10
46416;DHT22;32620;51.704;7.822;2023-04-08T08:57:23;7.90;58.70
46416;DHT22;32620;51.704;7.822;2023-04-08T08:59:49;8.00;45.50
46416;DHT22;32620;51.704;7.822;2023-04-08T09:02:23;8.10;52.90
46416;DHT22;32620;51.704;7.822;2023-04-08T09:04:58;8.20;54.10
46416;DHT22;32620;51.704;7.822;2023-04-08T09:07:25;8.40;35.70
46416;DHT22;32620;51.704;7.822;2023-04-08T09:09:52;8.40;20.40
46416;DHT22;32620;51.704;7.822;2023-04-08T09:12:18;8.20;28.70
46416;DHT22;32620;51.704;7.822;2023-04-08T09:14:44;8.00;30.90
46416;DHT22;32620;51.704;7.822;2023-04-08T09:17:10;8.10;44.20
46416;DHT22;32620;51.704;7.822;2023-04-08T09:19:36;8.10;27.40
46416;DHT22;32620;51.704;7.822;2023-04-08T09:22:04;7.90;26.50
46416;DHT22;32620;51.704;7.822;2023-04-08T09:24:31;8.00;31.00
46416;DHT22;32620;51.704;7.822;2023-04-08T09:26:56;8.00;39.60
46416;DHT22;32620;51.704;7.822;2023-04-08T09:29:24;8.10;40.10
46416;DHT22;32620;51.704;7.822;2023-04-08T09:31:54;8.10;42.60
46416;DHT22;32620;51.704;7.822;2023-04-08T09:34:20;8.10;33.80
46416;DHT22;32620;51.704;7.822;2023-04-08T09:36:48;8.10;41.80
46416;DHT22;32620;51.704;7.822;2023-04-08T09:39:14;8.10;31.20
46416;DHT22;32620;51.704;7.822;2023-04-08T09:41:40;8.20;18.10
46416;DHT22;32620;51.704;7.822;2023-04-08T09:44:08;8.40;30.90
46416;DHT22;32620;51.704;7.822;2023-04-08T09:49:39;8.50;3.70
46416;DHT22;32620;51.704;7.822;2023-04-08T09:52:10;8.40;31.70
46416;DHT22;32620;51.704;7.822;2023-04-08T09:55:07;8.50;24.10
46416;DHT22;32620;51.704;7.822;2023-04-08T09:57:58;8.60;15.80
46416;DHT22;32620;51.704;7.822;2023-04-08T10:00:38;8.40;15.60
46416;DHT22;32620;51.704;7.822;2023-04-08T10:03:10;8.50;18.20
46416;DHT22;32620;51.704;7.822;2023-04-08T10:05:40;8.60;8.40
46416;DHT22;32620;51.704;7.822;2023-04-08T10:08:06;8.80;1.00
46416;DHT22;32620;51.704;7.822;2023-04-08T10:10:33;9.10;1.00
46416;DHT22;32620;51.704;7.822;2023-04-08T10:13:00;9.30;1.00
46416;DHT22;32620;51.704;7.822;2023-04-08T10:15:28;9.50;1.00
46416;DHT22;32620;51.704;7.822;2023-04-08T10:18:29;9.40;1.00
46416;DHT22;32620;51.704;7.822;2023-04-08T10:20:44;9.50;1.00
46416;DHT22;32620;51.704;7.822;2023-04-08T10:23:13;9.40;1.00
46416;DHT22;32620;51.704;7.822;2023-04-08T10:25:42;9.50;1.00
46416;DHT22;32620;51.704;7.822;2023-04-08T10:30:55;9.20;1.00
46416;DHT22;32620;51.704;7.822;2023-04-08T10:33:38;9.50;1.00
46416;DHT22;32620;51.704;7.822;2023-04-08T10:38:44;9.50;1.00
46416;DHT22;32620;51.704;7.822;2023-04-08T10:41:11;9.40;1.00
46416;DHT22;32620;51.704;7.822;2023-04-08T10:43:38;9.50;1.00
46416;DHT22;32620;51.704;7.822;2023-04-08T10:46:04;9.50;1.00
46416;DHT22;32620;51.704;7.822;2023-04-08T10:48:29;9.60;1.00
46416;DHT22;32620;51.704;7.822;2023-04-08T10:51:00;9.50;1.00
46416;DHT22;32620;51.704;7.822;2023-04-08T10:53:36;9.60;1.00
46416;DHT22;32620;51.704;7.822;2023-04-08T10:56:03;9.60;1.00
46416;DHT22;32620;51.704;7.822;2023-04-08T10:58:30;9.60;1.00
46416;DHT22;32620;51.704;7.822;2023-04-08T11:00:55;9.60;1.00
46416;DHT22;32620;51.704;7.822;2023-04-08T11:03:27;9.60;1.00
46416;DHT22;32620;51.704;7.822;2023-04-08T11:05:52;9.70;1.00
46416;DHT22;32620;51.704;7.822;2023-04-08T11:08:27;9.60;1.00
46416;DHT22;32620;51.704;7.822;2023-04-08T11:10:53;9.70;1.00
46416;DHT22;32620;51.704;7.822;2023-04-08T11:13:19;9.90;1.00
46416;DHT22;32620;51.704;7.822;2023-04-08T11:15:45;10.00;1.00
46416;DHT22;32620;51.704;7.822;2023-04-08T11:18:11;10.30;1.00
46416;DHT22;32620;51.704;7.822;2023-04-08T11:20:37;10.60;1.00
46416;DHT22;32620;51.704;7.822;2023-04-08T11:23:11;10.40;1.00
46416;DHT22;32620;51.704;7.822;2023-04-08T11:25:36;10.30;1.00
46416;DHT22;32620;51.704;7.822;2023-04-08T11:28:02;10.20;1.00
46416;DHT22;32620;51.704;7.822;2023-04-08T11:30:29;10.30;1.00
46416;DHT22;32620;51.704;7.822;2023-04-08T11:32:55;10.30;1.00
46416;DHT22;32620;51.704;7.822;2023-04-08T11:35:21;10.30;1.00
46416;DHT22;32620;51.704;7.822;2023-04-08T11:37:46;10.30;1.00
46416;DHT22;32620;51.704;7.822;2023-04-08T11:40:19;10.50;1.00
46416;DHT22;32620;51.704;7.822;2023-04-08T11:42:45;10.60;1.00
46416;DHT22;32620;51.704;7.822;2023-04-08T11:45:13;10.50;1.00
46416;DHT22;32620;51.704;7.822;2023-04-08T11:47:39;10.20;1.00
46416;DHT22;32620;51.704;7.822;2023-04-08T11:50:05;10.40;1.00
46416;DHT22;32620;51.704;7.822;2023-04-08T11:52:48;10.70;1.00
46416;DHT22;32620;51.704;7.822;2023-04-08T11:55:24;10.80;1.00
46416;DHT22;32620;51.704;7.822;2023-04-08T11:57:51;10.80;1.00
46416;DHT22;32620;51.704;7.822;2023-04-08T12:00:17;10.70;1.00
46416;DHT22;32620;51.704;7.822;2023-04-08T12:02:43;10.60;1.00
46416;DHT22;32620;51.704;7.822;2023-04-08T12:05:09;10.60;1.00
46416;DHT22;32620;51.704;7.822;2023-04-08T12:07:35;10.70;1.00
46416;DHT22;32620;51.704;7.822;2023-04-08T12:10:00;10.70;1.00
46416;DHT22;32620;51.704;7.822;2023-04-08T12:12:26;11.20;1.00
46416;DHT22;32620;51.704;7.822;2023-04-08T12:14:51;11.20;1.00
46416;DHT22;32620;51.704;7.822;2023-04-08T12:17:17;11.40;1.00
46416;DHT22;32620;51.704;7.822;2023-04-08T12:19:43;11.50;1.00
46416;DHT22;32620;51.704;7.822;2023-04-08T12:22:08;11.20;1.00
46416;DHT22;32620;51.704;7.822;2023-04-08T12:24:34;10.80;1.00
46416;DHT22;32620;51.704;7.822;2023-04-08T12:27:00;11.00;1.00
46416;DHT22;32620;51.704;7.822;2023-04-08T12:29:26;10.80;1.00
46416;DHT22;32620;51.704;7.822;2023-04-08T12:31:52;10.70;1.00
46416;DHT22;32620;51.704;7.822;2023-04-08T12:34:18;10.70;1.00
46416;DHT22;32620;51.704;7.822;2023-04-08T12:36:44;10.80;1.00
46416;DHT22;32620;51.704;7.822;2023-04-08T12:39:10;10.90;1.00
46416;DHT22;32620;51.704;7.822;2023-04-08T12:41:35;11.00;1.00
46416;DHT22;32620;51.704;7.822;2023-04-08T12:44:01;11.20;1.00
46416;DHT22;32620;51.704;7.822;2023-04-08T12:46:26;11.10;1.00
46416;DHT22;32620;51.704;7.822;2023-04-08T12:48:52;11.00;1.00
46416;DHT22;32620;51.704;7.822;2023-04-08T12:51:18;11.10;1.00
46416;DHT22;32620;51.704;7.822;2023-04-08T12:53:43;11.10;1.00
46416;DHT22;32620;51.704;7.822;2023-04-08T12:56:09;11.40;1.00
46416;DHT22;32620;51.704;7.822;2023-04-08T12:58:35;11.50;1.00
46416;DHT22;32620;51.704;7.822;2023-04-08T13:01:00;11.60;1.00
46416;DHT22;32620;51.704;7.822;2023-04-08T13:03:26;11.30;1.00
46416;DHT22;32620;51.704;7.822;2023-04-08T13:05:55;11.30;1.00
46416;DHT22;32620;51.704;7.822;2023-04-08T13:08:21;11.20;1.00
46416;DHT22;32620;51.704;7.822;2023-04-08T13:10:47;11.10;1.00
46416;DHT22;32620;51.704;7.822;2023-04-08T13:13:13;11.40;1.00
46416;DHT22;32620;51.704;7.822;2023-04-08T13:15:38;11.60;1.00
46416;DHT22;32620;51.704;7.822;2023-04-08T13:18:04;11.70;1.00
46416;DHT22;32620;51.704;7.822;2023-04-08T13:20:30;11.50;1.00
46416;DHT22;32620;51.704;7.822;2023-04-08T13:22:55;11.70;1.00
46416;DHT22;32620;51.704;7.822;2023-04-08T13:25:21;11.50;1.00
46416;DHT22;32620;51.704;7.822;2023-04-08T13:27:46;11.50;1.00
46416;DHT22;32620;51.704;7.822;2023-04-08T13:30:12;11.70;1.00
46416;DHT22;32620;51.704;7.822;2023-04-08T13:32:38;11.60;1.00
46416;DHT22;32620;51.704;7.822;2023-04-08T13:35:04;11.60;1.00
46416;DHT22;32620;51.704;7.822;2023-04-08T13:37:30;11.60;1.00
46416;DHT22;32620;51.704;7.822;2023-04-08T13:39:55;11.70;1.00
46416;DHT22;32620;51.704;7.822;2023-04-08T13:42:21;11.40;1.00
46416;DHT22;32620;51.704;7.822;2023-04-08T13:44:47;11.10;1.00
46416;DHT22;32620;51.704;7.822;2023-04-08T13:47:13;11.10;1.00
46416;DHT22;32620;51.704;7.822;2023-04-08T13:49:39;11.10;1.00
46416;DHT22;32620;51.704;7.822;2023-04-08T13:52:05;11.00;1.00
46416;DHT22;32620;51.704;7.822;2023-04-08T13:54:31;11.10;1.00
46416;DHT22;32620;51.704;7.822;2023-04-08T13:56:57;11.20;1.00
46416;DHT22;32620;51.704;7.822;2023-04-08T13:59:23;11.10;1.00
46416;DHT22;32620;51.704;7.822;2023-04-08T14:01:48;11.10;1.00
46416;DHT22;32620;51.704;7.822;2023-04-08T14:04:18;11.00;1.00
46416;DHT22;32620;51.704;7.822;2023-04-08T14:06:45;10.80;1.00
46416;DHT22;32620;51.704;7.822;2023-04-08T14:09:10;11.00;1.00
46416;DHT22;32620;51.704;7.822;2023-04-08T14:11:36;11.10;1.00
46416;DHT22;32620;51.704;7.822;2023-04-08T14:14:02;11.10;1.00
46416;DHT22;32620;51.704;7.822;2023-04-08T14:16:27;11.10;1.00
46416;DHT22;32620;51.704;7.822;2023-04-08T14:18:55;11.20;1.00
46416;DHT22;32620;51.704;7.822;2023-04-08T14:21:21;11.30;1.00
46416;DHT22;32620;51.704;7.822;2023-04-08T14:23:47;11.20;1.00
46416;DHT22;32620;51.704;7.822;2023-04-08T14:26:12;10.90;1.00
46416;DHT22;32620;51.704;7.822;2023-04-08T14:28:38;10.80;1.00
46416;DHT22;32620;51.704;7.822;2023-04-08T14:31:03;10.70;1.00
46416;DHT22;32620;51.704;7.822;2023-04-08T14:33:29;10.70;8.50
46416;DHT22;32620;51.704;7.822;2023-04-08T14:35:55;10.70;9.20
46416;DHT22;32620;51.704;7.822;2023-04-08T14:38:21;10.60;6.90
46416;DHT22;32620;51.704;7.822;2023-04-08T14:40:47;10.80;5.10
46416;DHT22;32620;51.704;7.822;2023-04-08T14:43:12;10.70;7.00
46416;DHT22;32620;51.704;7.822;2023-04-08T14:45:38;10.50;17.50
46416;DHT22;32620;51.704;7.822;2023-04-08T14:48:04;10.40;17.40
46416;DHT22;32620;51.704;7.822;2023-04-08T14:50:29;10.50;19.40
46416;DHT22;32620;51.704;7.822;2023-04-08T14:52:56;10.40;22.20
46416;DHT22;32620;51.704;7.822;2023-04-08T14:55:21;10.50;25.40
46416;DHT22;32620;51.704;7.822;2023-04-08T14:57:47;10.50;19.90
46416;DHT22;32620;51.704;7.822;2023-04-08T15:00:13;10.50;19.90
46416;DHT22;32620;51.704;7.822;2023-04-08T15:02:38;10.50;19.20
46416;DHT22;32620;51.704;7.822;2023-04-08T15:05:04;10.40;17.30
46416;DHT22;32620;51.704;7.822;2023-04-08T15:07:30;10.40;31.10
46416;DHT22;32620;51.704;7.822;2023-04-08T15:09:56;10.40;28.30
46416;DHT22;32620;51.704;7.822;2023-04-08T15:12:21;10.40;30.00
46416;DHT22;32620;51.704;7.822;2023-04-08T15:14:47;10.40;23.80
46416;DHT22;32620;51.704;7.822;2023-04-08T15:17:13;10.40;21.80
46416;DHT22;32620;51.704;7.822;2023-04-08T15:19:38;10.50;23.90
46416;DHT22;32620;51.704;7.822;2023-04-08T15:22:04;10.70;17.60
46416;DHT22;32620;51.704;7.822;2023-04-08T15:24:29;10.80;12.00
46416;DHT22;32620;51.704;7.822;2023-04-08T15:26:55;10.90;5.50
46416;DHT22;32620;51.704;7.822;2023-04-08T15:29:22;10.80;1.00
46416;DHT22;32620;51.704;7.822;2023-04-08T15:31:48;10.60;6.00
46416;DHT22;32620;51.704;7.822;2023-04-08T15:34:13;10.60;7.10
46416;DHT22;32620;51.704;7.822;2023-04-08T15:36:39;10.70;8.90
46416;DHT22;32620;51.704;7.822;2023-04-08T15:39:05;10.80;6.50
46416;DHT22;32620;51.704;7.822;2023-04-08T15:41:30;10.80;1.00
46416;DHT22;32620;51.704;7.822;2023-04-08T15:43:56;10.70;1.00
46416;DHT22;32620;51.704;7.822;2023-04-08T15:46:22;10.80;1.00
46416;DHT22;32620;51.704;7.822;2023-04-08T15:48:48;10.80;1.00
46416;DHT22;32620;51.704;7.822;2023-04-08T15:51:14;10.80;3.40
46416;DHT22;32620;51.704;7.822;2023-04-08T15:53:41;10.60;1.70
46416;DHT22;32620;51.704;7.822;2023-04-08T15:56:11;10.60;3.30
46416;DHT22;32620;51.704;7.822;2023-04-08T15:58:38;10.60;1.00